Time;durP1;ratioP1;P1;durP2;ratioP2;P2;SDS_P1;SDS_P2;PMS_P1;PMS_P2;Temp;Humidity;BMP_temperature;BMP_pressure;BME280_temperature;BME280_humidity;BME280_pressure;Samples;Min_cycle;Max_cycle;Signal;HPM_P1;HPM_P2
2021/12/13 00:01:50;;;;;;;12.98;7.12;;;;;;;;;;1924547;74;21011;-40
2021/12/13 00:04:23;;;;;;;14.70;8.70;;;;;;;;;;1924309;74;21018;-40
2021/12/13 00:06:54;;;;;;;14.07;8.15;;;;;;;;;;1924629;74;21076;-41
2021/12/13 00:09:24;;;;;;;11.30;6.75;;;;;;;;;;1921705;74;21019;-40
2021/12/13 00:11:54;;;;;;;12.43;7.50;;;;;;;;;;1924694;74;20995;-40
2021/12/13 00:14:27;;;;;;;14.40;9.10;;;;;;;;;;1924499;74;21007;-40
2021/12/13 00:16:59;;;;;;;13.65;8.68;;;;;;;;;;1924332;74;21481;-40
2021/12/13 00:19:29;;;;;;;12.68;7.62;;;;;;;;;;1924500;74;21121;-40
2021/12/13 00:21:59;;;;;;;11.70;7.62;;;;;;;;;;1924401;74;21026;-40
2021/12/13 00:24:29;;;;;;;18.65;8.10;;;;;;;;;;1924657;74;21069;-40
2021/12/13 00:27:02;;;;;;;11.68;8.23;;;;;;;;;;1924702;74;21094;-40
2021/12/13 00:29:33;;;;;;;14.55;6.87;;;;;;;;;;1924700;74;21023;-40
2021/12/13 00:32:10;;;;;;;17.85;7.75;;;;;;;;;;1924652;74;21042;-40
2021/12/13 00:34:44;;;;;;;21.10;8.05;;;;;;;;;;1923748;74;21051;-40
2021/12/13 00:37:23;;;;;;;19.42;6.75;;;;;;;;;;1924699;74;21458;-40
2021/12/13 00:39:53;;;;;;;18.90;7.95;;;;;;;;;;1924528;74;21011;-40
2021/12/13 00:42:23;;;;;;;18.87;8.25;;;;;;;;;;1924672;74;21077;-40
2021/12/13 00:44:53;;;;;;;17.67;8.18;;;;;;;;;;1924583;74;21076;-40
2021/12/13 00:47:23;;;;;;;14.30;7.65;;;;;;;;;;1924787;74;21047;-40
2021/12/13 00:49:56;;;;;;;18.85;8.80;;;;;;;;;;1924679;74;21019;-40
2021/12/13 00:52:25;;;;;;;23.92;8.58;;;;;;;;;;1924695;74;21088;-40
2021/12/13 00:54:56;;;;;;;70.32;9.83;;;;;;;;;;1924645;74;21093;-40
2021/12/13 00:57:32;;;;;;;43.73;9.93;;;;;;;;;;1924460;74;21068;-41
2021/12/13 01:00:04;;;;;;;31.52;8.18;;;;;;;;;;1924542;74;21046;-40
2021/12/13 01:02:33;;;;;;;32.85;9.28;;;;;;;;;;1924509;74;21092;-40
2021/12/13 01:05:06;;;;;;;28.10;9.63;;;;;;;;;;1924254;74;21493;-40
2021/12/13 01:07:36;;;;;;;30.62;9.33;;;;;;;;;;1915486;74;21035;-40
2021/12/13 01:10:25;;;;;;;36.75;9.35;;;;;;;;;;1904347;74;20996;-40
2021/12/13 01:12:54;;;;;;;28.50;8.00;;;;;;;;;;1905291;75;21077;-40
2021/12/13 01:15:30;;;;;;;37.93;9.83;;;;;;;;;;1905215;75;21081;-40
2021/12/13 01:18:16;;;;;;;35.25;9.58;;;;;;;;;;1904829;74;21516;-40
2021/12/13 01:20:43;;;;;;;66.72;9.98;;;;;;;;;;1903750;74;21015;-40
2021/12/13 01:23:05;;;;;;;29.15;9.70;;;;;;;;;;1903575;74;21470;-40
2021/12/13 01:25:46;;;;;;;34.05;8.30;;;;;;;;;;1905195;74;21501;-40
2021/12/13 01:28:21;;;;;;;75.42;11.30;;;;;;;;;;1905059;74;21509;-40
2021/12/13 01:30:54;;;;;;;25.50;9.33;;;;;;;;;;1904840;74;21015;-40
2021/12/13 01:33:24;;;;;;;27.10;9.35;;;;;;;;;;1904917;74;21108;-40
2021/12/13 01:35:54;;;;;;;30.72;8.88;;;;;;;;;;1905084;75;21040;-40
2021/12/13 01:38:32;;;;;;;43.78;10.10;;;;;;;;;;1905073;74;21125;-40
2021/12/13 01:40:54;;;;;;;25.37;8.90;;;;;;;;;;1904401;74;21019;-40
2021/12/13 01:43:24;;;;;;;24.90;7.90;;;;;;;;;;1905195;75;21027;-40
2021/12/13 01:45:53;;;;;;;28.00;7.55;;;;;;;;;;1905237;75;21077;-40
2021/12/13 01:48:23;;;;;;;41.30;9.65;;;;;;;;;;1905211;75;21145;-39
2021/12/13 01:51:03;;;;;;;15.65;8.53;;;;;;;;;;1904088;74;21089;-40
2021/12/13 01:53:36;;;;;;;14.35;7.75;;;;;;;;;;1904359;74;21047;-40
2021/12/13 01:56:12;;;;;;;32.73;8.80;;;;;;;;;;1905183;75;21081;-40
2021/12/13 01:58:40;;;;;;;18.62;8.18;;;;;;;;;;1904959;74;21504;-40
2021/12/13 02:01:10;;;;;;;33.50;8.75;;;;;;;;;;1905195;75;21047;-39
2021/12/13 02:03:53;;;;;;;33.18;9.90;;;;;;;;;;1905291;75;21305;-40
2021/12/13 02:06:25;;;;;;;23.45;7.50;;;;;;;;;;1905215;75;21047;-40
2021/12/13 02:08:55;;;;;;;79.92;10.25;;;;;;;;;;1915318;74;21007;-40
2021/12/13 02:11:25;;;;;;;23.92;8.40;;;;;;;;;;1924644;74;21104;-40
2021/12/13 02:14:06;;;;;;;34.65;8.40;;;;;;;;;;1924737;74;21023;-40
2021/12/13 02:19:14;;;;;;;46.35;8.68;;;;;;;;;;1924635;74;21104;-39
2021/12/13 02:21:44;;;;;;;41.28;8.05;;;;;;;;;;1924100;74;21084;-40
2021/12/13 02:24:13;;;;;;;21.52;7.90;;;;;;;;;;1924430;74;21046;-40
2021/12/13 02:26:43;;;;;;;22.07;7.53;;;;;;;;;;1924620;74;21007;-40
2021/12/13 02:29:13;;;;;;;26.35;7.25;;;;;;;;;;1924795;74;21018;-39
2021/12/13 02:31:41;;;;;;;24.30;8.13;;;;;;;;;;1924491;74;21018;-40
2021/12/13 02:34:11;;;;;;;17.87;7.47;;;;;;;;;;1924680;74;20995;-40
2021/12/13 02:36:42;;;;;;;36.30;9.60;;;;;;;;;;1924707;74;21031;-40
2021/12/13 02:39:12;;;;;;;31.73;7.50;;;;;;;;;;1924585;74;21484;-40
2021/12/13 02:41:41;;;;;;;25.75;8.70;;;;;;;;;;1924635;74;21088;-39
2021/12/13 02:44:11;;;;;;;27.45;7.47;;;;;;;;;;1924663;74;21097;-40
2021/12/13 02:46:40;;;;;;;42.48;8.25;;;;;;;;;;1924312;74;21088;-39
2021/12/13 02:49:10;;;;;;;27.77;6.40;;;;;;;;;;1924677;74;21038;-38
2021/12/13 02:51:40;;;;;;;24.63;6.90;;;;;;;;;;1924725;74;21081;-39
2021/12/13 02:54:17;;;;;;;35.50;7.25;;;;;;;;;;1924553;74;21108;-39
2021/12/13 02:56:47;;;;;;;26.12;7.25;;;;;;;;;;1924701;74;21019;-39
2021/12/13 02:59:16;;;;;;;27.85;6.37;;;;;;;;;;1924665;74;21015;-39
2021/12/13 03:01:46;;;;;;;30.37;7.95;;;;;;;;;;1924684;74;21024;-39
2021/12/13 03:04:16;;;;;;;41.65;7.40;;;;;;;;;;1924698;74;21015;-39
2021/12/13 03:06:51;;;;;;;42.88;8.20;;;;;;;;;;1924630;74;21019;-40
2021/12/13 03:09:22;;;;;;;40.20;8.00;;;;;;;;;;1913744;74;21083;-39
2021/12/13 03:11:52;;;;;;;26.52;7.03;;;;;;;;;;1905199;75;21008;-39
2021/12/13 03:14:22;;;;;;;27.87;8.35;;;;;;;;;;1905336;75;21090;-39
2021/12/13 03:16:52;;;;;;;52.43;9.35;;;;;;;;;;1904484;74;21127;-39
2021/12/13 03:19:31;;;;;;;29.32;7.17;;;;;;;;;;1905687;74;21094;-39
2021/12/13 03:22:03;;;;;;;19.37;8.13;;;;;;;;;;1905371;75;21023;-39
2021/12/13 03:24:36;;;;;;;22.73;8.80;;;;;;;;;;1905460;75;20992;-39
2021/12/13 03:27:06;;;;;;;30.27;8.25;;;;;;;;;;1905256;74;21106;-39
2021/12/13 03:29:42;;;;;;;24.77;6.80;;;;;;;;;;1905258;74;21101;-39
2021/12/13 03:32:12;;;;;;;25.75;7.67;;;;;;;;;;1905291;75;21077;-40
2021/12/13 03:34:42;;;;;;;18.00;6.47;;;;;;;;;;1905353;75;21019;-40
2021/12/13 03:37:12;;;;;;;33.78;8.25;;;;;;;;;;1905342;75;21015;-39
2021/12/13 03:39:45;;;;;;;15.15;7.67;;;;;;;;;;1904380;74;21043;-39
2021/12/13 03:42:15;;;;;;;23.95;8.78;;;;;;;;;;1905217;75;20996;-39
2021/12/13 03:44:47;;;;;;;24.82;8.13;;;;;;;;;;1905367;75;21050;-40
2021/12/13 03:47:16;;;;;;;31.60;9.05;;;;;;;;;;1905300;75;21051;-39
2021/12/13 03:49:46;;;;;;;58.00;9.88;;;;;;;;;;1905302;75;21019;-39
2021/12/13 03:52:16;;;;;;;27.58;9.50;;;;;;;;;;1904355;74;21090;-39
2021/12/13 03:54:46;;;;;;;89.87;13.53;;;;;;;;;;1905161;75;21089;-39
2021/12/13 03:57:16;;;;;;;34.50;12.43;;;;;;;;;;1905234;74;21523;-39
2021/12/13 03:59:45;;;;;;;29.75;11.50;;;;;;;;;;1905328;75;20992;-39
2021/12/13 04:02:16;;;;;;;31.93;9.78;;;;;;;;;;1905226;75;21027;-39
2021/12/13 04:04:46;;;;;;;23.38;8.55;;;;;;;;;;1905297;75;21011;-39
2021/12/13 04:07:16;;;;;;;57.83;9.23;;;;;;;;;;1905149;74;21015;-39
2021/12/13 04:09:46;;;;;;;28.77;9.80;;;;;;;;;;1914665;74;21070;-39
2021/12/13 04:12:16;;;;;;;35.68;10.35;;;;;;;;;;1924564;74;21015;-39
2021/12/13 04:14:48;;;;;;;34.73;10.85;;;;;;;;;;1924567;74;21018;-39
2021/12/13 04:17:22;;;;;;;26.17;10.43;;;;;;;;;;1924530;73;21477;-39
2021/12/13 04:19:51;;;;;;;38.57;13.40;;;;;;;;;;1924796;74;21141;-39
2021/12/13 04:22:21;;;;;;;50.50;13.08;;;;;;;;;;1924486;74;21527;-39
2021/12/13 04:24:51;;;;;;;26.05;13.50;;;;;;;;;;1924519;74;21014;-39
2021/12/13 04:27:24;;;;;;;46.70;14.35;;;;;;;;;;1924602;74;21014;-39
2021/12/13 04:29:54;;;;;;;31.40;13.43;;;;;;;;;;1924583;74;21014;-39
2021/12/13 04:32:24;;;;;;;43.38;12.07;;;;;;;;;;1924582;74;21061;-39
2021/12/13 04:34:54;;;;;;;37.53;14.50;;;;;;;;;;1924528;74;21015;-39
2021/12/13 04:37:24;;;;;;;36.55;13.05;;;;;;;;;;1924661;74;21019;-39
2021/12/13 04:39:57;;;;;;;26.97;11.97;;;;;;;;;;1924684;74;21461;-39
2021/12/13 04:42:27;;;;;;;23.45;10.30;;;;;;;;;;1924585;74;20983;-39
2021/12/13 04:45:03;;;;;;;17.67;9.73;;;;;;;;;;1924582;74;21112;-38
2021/12/13 04:47:50;;;;;;;22.73;9.63;;;;;;;;;;1924667;74;21018;-40
2021/12/13 04:50:20;;;;;;;16.15;9.50;;;;;;;;;;1924502;74;21143;-40
2021/12/13 04:52:49;;;;;;;17.45;8.90;;;;;;;;;;1924420;74;21074;-40
2021/12/13 04:55:19;;;;;;;16.75;7.58;;;;;;;;;;1924589;74;21035;-40
2021/12/13 04:57:48;;;;;;;11.83;7.10;;;;;;;;;;1923784;74;21315;-40
2021/12/13 05:00:19;;;;;;;20.25;6.95;;;;;;;;;;1924699;74;21030;-40
2021/12/13 05:02:49;;;;;;;15.13;7.85;;;;;;;;;;1924635;74;20987;-40
2021/12/13 05:05:18;;;;;;;13.05;6.80;;;;;;;;;;1924587;74;21080;-40
2021/12/13 05:07:48;;;;;;;21.00;6.95;;;;;;;;;;1924572;74;21035;-40
2021/12/13 05:10:17;;;;;;;10.95;6.78;;;;;;;;;;1924525;74;21101;-40
2021/12/13 05:12:50;;;;;;;27.98;6.40;;;;;;;;;;1924503;74;21023;-40
2021/12/13 05:15:20;;;;;;;10.75;6.42;;;;;;;;;;1908163;74;21035;-40
2021/12/13 05:17:49;;;;;;;11.73;6.75;;;;;;;;;;1924431;74;21073;-40
2021/12/13 05:20:20;;;;;;;16.97;7.72;;;;;;;;;;1924533;74;21027;-40
2021/12/13 05:22:50;;;;;;;17.75;7.00;;;;;;;;;;1924406;74;20991;-39
2021/12/13 05:25:35;;;;;;;47.67;6.90;;;;;;;;;;1924345;74;21070;-39
2021/12/13 05:28:05;;;;;;;36.20;8.40;;;;;;;;;;1924527;74;21015;-40
2021/12/13 05:30:35;;;;;;;27.15;7.45;;;;;;;;;;1924237;74;21019;-40
2021/12/13 05:33:05;;;;;;;23.98;7.65;;;;;;;;;;1924689;74;21042;-39
2021/12/13 05:35:35;;;;;;;11.97;6.72;;;;;;;;;;1924624;74;21011;-40
2021/12/13 05:38:05;;;;;;;27.70;10.80;;;;;;;;;;1924699;74;21023;-40
2021/12/13 05:40:38;;;;;;;17.70;6.33;;;;;;;;;;1924778;74;21015;-40
2021/12/13 05:43:14;;;;;;;17.00;6.70;;;;;;;;;;1923921;74;21145;-40
2021/12/13 05:45:44;;;;;;;10.72;7.25;;;;;;;;;;1924644;74;21050;-40
2021/12/13 05:48:14;;;;;;;19.25;6.58;;;;;;;;;;1924544;74;21012;-39
2021/12/13 05:50:47;;;;;;;18.60;7.25;;;;;;;;;;1924566;74;21104;-40
2021/12/13 05:53:17;;;;;;;22.10;7.28;;;;;;;;;;1924663;74;20995;-39
2021/12/13 05:55:56;;;;;;;16.70;7.40;;;;;;;;;;1924629;74;21018;-40
2021/12/13 05:58:29;;;;;;;22.30;8.28;;;;;;;;;;1924659;74;21015;-40
2021/12/13 06:00:58;;;;;;;12.33;7.47;;;;;;;;;;1924567;74;20990;-40
2021/12/13 06:03:31;;;;;;;11.85;6.80;;;;;;;;;;1924618;74;21027;-40
2021/12/13 06:06:01;;;;;;;20.50;7.62;;;;;;;;;;1924537;74;21108;-40
2021/12/13 06:08:31;;;;;;;35.38;8.25;;;;;;;;;;1921582;74;21104;-40
2021/12/13 06:11:01;;;;;;;40.28;9.40;;;;;;;;;;1912356;74;21055;-40
2021/12/13 06:13:47;;;;;;;28.00;8.03;;;;;;;;;;1905265;75;21023;-40
2021/12/13 06:16:14;;;;;;;;;;;;;;;;;;1908073;74;20995;-40
2021/12/13 06:18:44;;;;;;;47.73;8.60;;;;;;;;;;1905192;75;20363;-39
2021/12/13 06:21:14;;;;;;;14.13;7.78;;;;;;;;;;1904358;74;20992;-40
2021/12/13 06:23:44;;;;;;;34.78;7.83;;;;;;;;;;1905333;74;21081;-40
2021/12/13 06:26:14;;;;;;;18.25;7.37;;;;;;;;;;1905265;74;21047;-40
2021/12/13 06:28:44;;;;;;;49.73;10.20;;;;;;;;;;1905182;74;21101;-40
2021/12/13 06:31:17;;;;;;;21.70;9.20;;;;;;;;;;1905186;75;21426;-40
2021/12/13 06:33:59;;;;;;;29.23;9.38;;;;;;;;;;1905277;74;21074;-41
2021/12/13 06:36:29;;;;;;;16.05;8.25;;;;;;;;;;1904795;74;21086;-41
2021/12/13 06:38:59;;;;;;;19.10;9.08;;;;;;;;;;1905317;75;21490;-41
2021/12/13 06:41:29;;;;;;;24.75;12.35;;;;;;;;;;1905215;75;21067;-41
2021/12/13 06:44:08;;;;;;;26.68;8.85;;;;;;;;;;1905331;75;21111;-41
2021/12/13 06:46:38;;;;;;;17.35;9.80;;;;;;;;;;1905321;75;21117;-41
2021/12/13 06:49:09;;;;;;;50.70;11.08;;;;;;;;;;1905184;75;21133;-41
2021/12/13 06:51:54;;;;;;;26.95;10.93;;;;;;;;;;1905138;74;21308;-41
2021/12/13 06:54:27;;;;;;;17.48;9.23;;;;;;;;;;1905436;75;21019;-41
2021/12/13 06:56:57;;;;;;;19.92;10.03;;;;;;;;;;1905300;75;21023;-41
2021/12/13 06:59:26;;;;;;;15.05;8.95;;;;;;;;;;1905330;75;20992;-41
2021/12/13 07:01:56;;;;;;;20.00;9.63;;;;;;;;;;1905268;74;21085;-41
2021/12/13 07:04:25;;;;;;;16.50;8.93;;;;;;;;;;1905034;75;21101;-41
2021/12/13 07:06:55;;;;;;;20.43;10.53;;;;;;;;;;1905215;75;21097;-41
2021/12/13 07:09:24;;;;;;;19.23;11.10;;;;;;;;;;1904316;74;21091;-42
2021/12/13 07:11:54;;;;;;;16.07;9.73;;;;;;;;;;1920734;74;21046;-41
2021/12/13 07:14:24;;;;;;;16.32;9.40;;;;;;;;;;1924604;74;21015;-41
2021/12/13 07:16:54;;;;;;;15.13;10.13;;;;;;;;;;1923689;74;21148;-42
2021/12/13 07:19:24;;;;;;;40.55;11.63;;;;;;;;;;1924728;74;21108;-42
2021/12/13 07:22:00;;;;;;;21.48;11.10;;;;;;;;;;1923349;74;21050;-41
2021/12/13 07:24:33;;;;;;;43.55;13.00;;;;;;;;;;1924562;74;21069;-41
2021/12/13 07:27:06;;;;;;;22.02;11.33;;;;;;;;;;1924581;74;21023;-41
2021/12/13 07:29:51;;;;;;;25.55;12.25;;;;;;;;;;1924588;74;21070;-41
2021/12/13 07:32:21;;;;;;;26.35;14.10;;;;;;;;;;1924565;74;21098;-41
2021/12/13 07:35:08;;;;;;;27.85;14.95;;;;;;;;;;1924576;74;21125;-44
2021/12/13 07:37:38;;;;;;;41.37;18.15;;;;;;;;;;1923214;74;21160;-45
2021/12/13 07:40:15;;;;;;;48.48;18.85;;;;;;;;;;1923927;74;21092;-44
2021/12/13 07:42:53;;;;;;;37.78;18.57;;;;;;;;;;1924011;74;20995;-46
2021/12/13 07:45:27;;;;;;;30.08;16.23;;;;;;;;;;1923720;74;21101;-43
2021/12/13 07:47:57;;;;;;;40.75;18.07;;;;;;;;;;1923655;74;21046;-44
2021/12/13 07:50:26;;;;;;;27.87;15.30;;;;;;;;;;1923935;74;21026;-44
2021/12/13 07:52:56;;;;;;;29.87;15.38;;;;;;;;;;1923864;74;21124;-44
2021/12/13 07:55:26;;;;;;;30.75;16.48;;;;;;;;;;1923916;74;21034;-44
2021/12/13 07:57:56;;;;;;;37.75;17.55;;;;;;;;;;1923918;74;20995;-43
2021/12/13 08:00:26;;;;;;;29.48;17.70;;;;;;;;;;1923619;74;21089;-44
2021/12/13 08:02:56;;;;;;;29.07;16.37;;;;;;;;;;1923863;74;21074;-43
2021/12/13 08:05:26;;;;;;;29.10;17.52;;;;;;;;;;1924092;74;21066;-44
2021/12/13 08:07:58;;;;;;;28.25;17.27;;;;;;;;;;1923986;74;21320;-43
2021/12/13 08:10:28;;;;;;;38.85;20.02;;;;;;;;;;1923894;74;21603;-43
2021/12/13 08:13:02;;;;;;;30.30;18.02;;;;;;;;;;1924414;74;21062;-44
2021/12/13 08:15:38;;;;;;;39.33;22.07;;;;;;;;;;1924852;74;21066;-44
2021/12/13 08:18:08;;;;;;;36.88;20.12;;;;;;;;;;1915180;74;21019;-45
2021/12/13 08:20:45;;;;;;;29.42;18.50;;;;;;;;;;1924605;74;21043;-44
2021/12/13 08:23:15;;;;;;;32.63;19.32;;;;;;;;;;1924509;74;21019;-44
2021/12/13 08:25:44;;;;;;;23.50;15.10;;;;;;;;;;1923862;74;20998;-44
2021/12/13 08:28:15;;;;;;;25.17;15.30;;;;;;;;;;1924450;74;21069;-45
2021/12/13 08:30:48;;;;;;;18.45;11.63;;;;;;;;;;1924580;74;21014;-44
2021/12/13 08:33:18;;;;;;;17.82;11.65;;;;;;;;;;1923568;74;21092;-44
2021/12/13 08:35:50;;;;;;;24.95;10.88;;;;;;;;;;1924386;74;21450;-44
2021/12/13 08:38:39;;;;;;;15.45;10.15;;;;;;;;;;1924463;74;21560;-44
2021/12/13 08:41:18;;;;;;;15.38;9.10;;;;;;;;;;1924563;74;21038;-44
2021/12/13 08:44:03;;;;;;;15.93;10.00;;;;;;;;;;1924631;74;21038;-45
2021/12/13 08:46:50;;;;;;;13.93;8.70;;;;;;;;;;1923327;74;21027;-43
2021/12/13 08:49:23;;;;;;;13.72;8.78;;;;;;;;;;1924516;74;21038;-44
2021/12/13 08:52:11;;;;;;;12.78;7.50;;;;;;;;;;1924511;74;21039;-43
2021/12/13 08:54:44;;;;;;;14.10;8.90;;;;;;;;;;1859015;77;21142;-44
2021/12/13 08:57:30;;;;;;;14.63;9.38;;;;;;;;;;1858518;76;21059;-44
2021/12/13 09:00:00;;;;;;;12.85;8.65;;;;;;;;;;1892989;74;21100;-44
2021/12/13 09:02:30;;;;;;;17.70;9.15;;;;;;;;;;1922942;74;21070;-43
2021/12/13 09:05:00;;;;;;;16.02;9.25;;;;;;;;;;1924209;74;21464;-41
2021/12/13 09:07:29;;;;;;;15.32;10.25;;;;;;;;;;1923382;74;21080;-42
2021/12/13 09:09:58;;;;;;;17.23;10.90;;;;;;;;;;1924824;74;21156;-41
2021/12/13 09:12:28;;;;;;;14.03;9.25;;;;;;;;;;1911949;74;21121;-43
2021/12/13 09:14:58;;;;;;;13.13;9.65;;;;;;;;;;1905476;75;21466;-42
2021/12/13 09:17:31;;;;;;;14.05;9.75;;;;;;;;;;1905282;75;21024;-42
2021/12/13 09:19:59;;;;;;;16.17;8.95;;;;;;;;;;1905414;75;21493;-42
2021/12/13 09:22:32;;;;;;;24.35;10.65;;;;;;;;;;1905382;75;21020;-42
2021/12/13 09:25:02;;;;;;;13.85;9.38;;;;;;;;;;1905416;75;21015;-42
2021/12/13 09:27:35;;;;;;;13.80;8.80;;;;;;;;;;1905306;75;21043;-41
2021/12/13 09:30:08;;;;;;;14.10;9.73;;;;;;;;;;1904099;74;21093;-43
2021/12/13 09:32:38;;;;;;;19.42;9.03;;;;;;;;;;1905308;75;21047;-43
2021/12/13 09:35:17;;;;;;;17.65;9.33;;;;;;;;;;1905441;74;21019;-42
2021/12/13 09:37:45;;;;;;;16.05;9.48;;;;;;;;;;1905383;75;21023;-42
2021/12/13 09:40:15;;;;;;;15.30;9.75;;;;;;;;;;1905379;75;20999;-43
2021/12/13 09:42:45;;;;;;;14.47;9.23;;;;;;;;;;1905493;75;21134;-43
2021/12/13 09:45:15;;;;;;;15.05;9.70;;;;;;;;;;1905179;75;21007;-42
2021/12/13 09:47:44;;;;;;;18.15;9.20;;;;;;;;;;1904941;74;21023;-42
2021/12/13 09:50:14;;;;;;;13.83;8.20;;;;;;;;;;1905281;75;21082;-42
2021/12/13 09:52:44;;;;;;;12.95;8.10;;;;;;;;;;1905456;75;21083;-43
2021/12/13 09:55:16;;;;;;;12.93;8.78;;;;;;;;;;1905328;74;21101;-42
2021/12/13 09:57:46;;;;;;;7.83;4.87;;;;;;;;;;1905278;75;21148;-42
2021/12/13 10:00:16;;;;;;;16.10;10.45;;;;;;;;;;1897508;75;21023;-42
2021/12/13 10:02:46;;;;;;;14.10;10.30;;;;;;;;;;1904930;74;21031;-43
2021/12/13 10:05:16;;;;;;;11.73;9.28;;;;;;;;;;1905411;75;21081;-42
2021/12/13 10:07:46;;;;;;;13.60;9.63;;;;;;;;;;1905248;75;21589;-42
2021/12/13 10:10:16;;;;;;;16.00;9.38;;;;;;;;;;1905299;74;20999;-42
2021/12/13 10:12:49;;;;;;;13.38;8.35;;;;;;;;;;1916102;74;21132;-42
2021/12/13 10:15:19;;;;;;;14.28;9.40;;;;;;;;;;1924645;74;21112;-43
2021/12/13 10:17:50;;;;;;;12.68;9.28;;;;;;;;;;1924612;74;21022;-42
2021/12/13 10:20:20;;;;;;;14.33;9.83;;;;;;;;;;1924677;74;21038;-43
2021/12/13 10:22:48;;;;;;;14.83;10.75;;;;;;;;;;1924765;74;21429;-42
2021/12/13 10:25:19;;;;;;;19.00;10.93;;;;;;;;;;1924661;74;21011;-42
2021/12/13 10:27:49;;;;;;;27.13;11.50;;;;;;;;;;1924868;74;21018;-42
2021/12/13 10:30:19;;;;;;;18.92;10.35;;;;;;;;;;1924798;74;21018;-42
2021/12/13 10:32:49;;;;;;;18.75;12.25;;;;;;;;;;1924090;74;21039;-42
2021/12/13 10:35:18;;;;;;;17.15;11.08;;;;;;;;;;1924850;74;21038;-43
2021/12/13 10:37:48;;;;;;;18.87;10.28;;;;;;;;;;1924924;74;21019;-44
2021/12/13 10:40:18;;;;;;;13.22;10.30;;;;;;;;;;1924857;74;21080;-43
2021/12/13 10:42:48;;;;;;;16.20;9.78;;;;;;;;;;1924779;74;21015;-42
2021/12/13 10:45:18;;;;;;;13.25;9.83;;;;;;;;;;1924755;74;21076;-41
2021/12/13 10:47:48;;;;;;;14.87;8.55;;;;;;;;;;1923848;74;21023;-43
2021/12/13 10:50:18;;;;;;;19.57;12.15;;;;;;;;;;1924781;74;21058;-43
2021/12/13 10:52:48;;;;;;;17.27;11.15;;;;;;;;;;1923828;74;21026;-43
2021/12/13 10:55:18;;;;;;;18.82;11.38;;;;;;;;;;1924782;74;21163;-42
2021/12/13 10:57:48;;;;;;;16.45;10.00;;;;;;;;;;1923889;74;21086;-42
2021/12/13 11:00:18;;;;;;;13.78;10.18;;;;;;;;;;1924663;74;21022;-43
2021/12/13 11:02:47;;;;;;;15.63;10.70;;;;;;;;;;1924771;74;21018;-43
2021/12/13 11:05:17;;;;;;;15.40;10.38;;;;;;;;;;1924768;74;21016;-43
2021/12/13 11:07:46;;;;;;;18.62;10.55;;;;;;;;;;1924690;74;21022;-43
2021/12/13 11:10:17;;;;;;;14.07;9.60;;;;;;;;;;1924738;74;21141;-42
2021/12/13 11:12:47;;;;;;;15.20;10.25;;;;;;;;;;1924663;74;21168;-43
2021/12/13 11:15:19;;;;;;;14.78;9.98;;;;;;;;;;1924854;74;21027;-43
2021/12/13 11:17:48;;;;;;;15.83;9.90;;;;;;;;;;1924764;74;21015;-42
2021/12/13 11:20:21;;;;;;;19.15;11.55;;;;;;;;;;1924758;74;21092;-42
2021/12/13 11:22:50;;;;;;;17.42;11.93;;;;;;;;;;1924743;74;21477;-42
2021/12/13 11:25:20;;;;;;;19.80;12.78;;;;;;;;;;1924751;74;21164;-43
2021/12/13 11:27:49;;;;;;;19.23;11.38;;;;;;;;;;1924738;74;21018;-43
2021/12/13 11:30:20;;;;;;;16.73;10.85;;;;;;;;;;1924664;74;21031;-43
2021/12/13 11:32:59;;;;;;;16.40;11.38;;;;;;;;;;1924863;74;21022;-44
2021/12/13 11:35:46;;;;;;;20.90;9.80;;;;;;;;;;1924855;74;21082;-43
2021/12/13 11:38:31;;;;;;;18.30;13.18;;;;;;;;;;1924725;74;21092;-42
2021/12/13 11:40:59;;;;;;;;;;;;;;;;;;1927572;74;21058;-42
2021/12/13 11:43:46;;;;;;;27.32;16.80;;;;;;;;;;1924919;74;20382;-42
2021/12/13 11:46:27;;;;;;;23.40;16.60;;;;;;;;;;1924781;74;21042;-43
2021/12/13 11:49:05;;;;;;;21.73;12.23;;;;;;;;;;1924777;74;21433;-43
2021/12/13 11:51:54;;;;;;;20.48;12.82;;;;;;;;;;1923574;74;21046;-42
2021/12/13 11:54:40;;;;;;;29.07;13.55;;;;;;;;;;1924803;74;21055;-42
2021/12/13 11:57:19;;;;;;;26.73;17.05;;;;;;;;;;1924598;74;21100;-43
2021/12/13 11:59:51;;;;;;;23.18;13.60;;;;;;;;;;1924695;74;21007;-42
2021/12/13 12:02:31;;;;;;;31.33;14.38;;;;;;;;;;1924313;74;21054;-42
2021/12/13 12:05:17;;;;;;;26.35;16.02;;;;;;;;;;1924479;74;21066;-42
2021/12/13 12:08:03;;;;;;;29.80;18.67;;;;;;;;;;1924608;74;21046;-43
2021/12/13 12:10:51;;;;;;;26.48;16.65;;;;;;;;;;1923091;74;21054;-44
2021/12/13 12:13:33;;;;;;;21.50;12.07;;;;;;;;;;1915322;74;21043;-40
2021/12/13 12:16:03;;;;;;;28.10;15.18;;;;;;;;;;1921272;74;21066;-41
2021/12/13 12:18:33;;;;;;;28.40;16.12;;;;;;;;;;1924292;74;21505;-40
2021/12/13 12:21:19;;;;;;;19.85;12.45;;;;;;;;;;1924510;74;21480;-41
2021/12/13 12:23:49;;;;;;;24.92;13.13;;;;;;;;;;1924560;74;21102;-41
2021/12/13 12:26:18;;;;;;;17.92;10.45;;;;;;;;;;1924687;74;21018;-40
2021/12/13 12:28:48;;;;;;;18.90;11.25;;;;;;;;;;1924472;74;21023;-41
2021/12/13 12:31:17;;;;;;;20.02;12.58;;;;;;;;;;1924225;74;21110;-42
2021/12/13 12:33:47;;;;;;;19.55;11.25;;;;;;;;;;1922990;74;21163;-41
2021/12/13 12:36:23;;;;;;;13.55;7.62;;;;;;;;;;1923830;74;21066;-41
2021/12/13 12:38:53;;;;;;;13.28;6.42;;;;;;;;;;1923189;74;21090;-44
2021/12/13 12:41:41;;;;;;;16.15;8.40;;;;;;;;;;1894216;74;21028;-41
2021/12/13 12:44:11;;;;;;;19.05;6.17;;;;;;;;;;1890556;75;21118;-43
2021/12/13 12:46:41;;;;;;;12.13;6.25;;;;;;;;;;1890592;75;21528;-42
2021/12/13 12:49:11;;;;;;;10.00;6.50;;;;;;;;;;1891723;76;21395;-41
2021/12/13 12:51:40;;;;;;;16.48;6.08;;;;;;;;;;1891366;75;21028;-41
2021/12/13 12:54:10;;;;;;;9.45;6.10;;;;;;;;;;1891516;76;21032;-42
2021/12/13 12:56:40;;;;;;;6.97;4.83;;;;;;;;;;1891462;76;21117;-41
2021/12/13 12:59:13;;;;;;;8.73;5.80;;;;;;;;;;1891452;76;21024;-41
2021/12/13 13:01:43;;;;;;;11.85;5.65;;;;;;;;;;1891187;75;21028;-40
2021/12/13 13:04:16;;;;;;;12.80;6.17;;;;;;;;;;1891419;75;21059;-40
2021/12/13 13:06:45;;;;;;;10.53;5.08;;;;;;;;;;1891303;76;21000;-41
2021/12/13 13:09:14;;;;;;;12.63;6.03;;;;;;;;;;1890420;75;21060;-41
2021/12/13 13:11:44;;;;;;;14.50;5.95;;;;;;;;;;1891464;76;21035;-41
2021/12/13 13:14:14;;;;;;;19.40;6.60;;;;;;;;;;1891479;75;21106;-41
2021/12/13 13:16:44;;;;;;;15.53;7.70;;;;;;;;;;1891296;76;21561;-41
2021/12/13 13:19:24;;;;;;;13.55;6.75;;;;;;;;;;1891280;76;21067;-41
2021/12/13 13:21:52;;;;;;;9.85;6.17;;;;;;;;;;1862431;75;21078;-41
2021/12/13 13:24:21;;;;;;;15.65;6.35;;;;;;;;;;1891456;76;21087;-41
2021/12/13 13:26:50;;;;;;;12.60;6.78;;;;;;;;;;1891413;76;21157;-43
2021/12/13 13:29:20;;;;;;;9.85;5.97;;;;;;;;;;1890685;76;21091;-43
2021/12/13 13:31:53;;;;;;;9.03;6.33;;;;;;;;;;1889633;76;21071;-44
2021/12/13 13:34:23;;;;;;;9.23;6.10;;;;;;;;;;1891098;76;21023;-43
2021/12/13 13:36:56;;;;;;;13.05;7.55;;;;;;;;;;1891187;76;21016;-44
2021/12/13 13:39:26;;;;;;;12.85;6.75;;;;;;;;;;1889918;76;21127;-44
2021/12/13 13:41:59;;;;;;;11.03;6.70;;;;;;;;;;1889902;74;21111;-45
2021/12/13 13:44:27;;;;;;;14.95;7.90;;;;;;;;;;1890121;75;21118;-44
2021/12/13 13:47:01;;;;;;;13.80;6.90;;;;;;;;;;1890362;76;21046;-43
2021/12/13 13:49:29;;;;;;;12.15;6.42;;;;;;;;;;1889686;75;21564;-44
2021/12/13 13:51:59;;;;;;;14.23;7.45;;;;;;;;;;1889839;75;21102;-43
2021/12/13 13:54:30;;;;;;;11.55;6.28;;;;;;;;;;1889660;75;21082;-44
2021/12/13 13:56:59;;;;;;;15.58;6.40;;;;;;;;;;1891721;76;21008;-43
2021/12/13 13:59:28;;;;;;;14.78;5.85;;;;;;;;;;1891584;76;21052;-42
2021/12/13 14:01:58;;;;;;;12.88;5.25;;;;;;;;;;1891513;75;21118;-43
2021/12/13 14:04:31;;;;;;;12.33;5.58;;;;;;;;;;1891674;76;21028;-42
2021/12/13 14:07:07;;;;;;;14.03;5.40;;;;;;;;;;1891530;76;21518;-43
2021/12/13 14:09:40;;;;;;;8.48;5.30;;;;;;;;;;1891689;74;21082;-42
2021/12/13 14:12:10;;;;;;;15.58;5.60;;;;;;;;;;1891696;76;21537;-43
2021/12/13 14:14:43;;;;;;;14.13;6.72;;;;;;;;;;1891680;76;21005;-43
2021/12/13 14:17:13;;;;;;;12.80;7.00;;;;;;;;;;1874321;75;21061;-43
2021/12/13 14:19:43;;;;;;;34.60;9.35;;;;;;;;;;1872724;77;21123;-43
2021/12/13 14:22:13;;;;;;;25.60;12.28;;;;;;;;;;1872773;75;21009;-42
2021/12/13 14:24:43;;;;;;;33.13;13.70;;;;;;;;;;1872849;75;21496;-42
2021/12/13 14:27:23;;;;;;;36.38;12.65;;;;;;;;;;1872935;75;21183;-42
2021/12/13 14:29:53;;;;;;;25.77;11.97;;;;;;;;;;1872784;75;21507;-42
2021/12/13 14:32:21;;;;;;;37.90;13.48;;;;;;;;;;1872777;75;21456;-43
2021/12/13 14:34:52;;;;;;;34.73;13.28;;;;;;;;;;1872886;76;21087;-42
2021/12/13 14:37:20;;;;;;;40.12;15.72;;;;;;;;;;1872857;76;21010;-43
2021/12/13 14:39:51;;;;;;;28.65;12.00;;;;;;;;;;1872790;75;21108;-43
2021/12/13 14:42:21;;;;;;;26.82;10.50;;;;;;;;;;1872814;76;21013;-44
2021/12/13 14:44:54;;;;;;;34.00;12.03;;;;;;;;;;1872863;76;21543;-43
2021/12/13 14:47:40;;;;;;;27.73;10.85;;;;;;;;;;1872241;76;21131;-41
2021/12/13 14:50:29;;;;;;;51.23;14.78;;;;;;;;;;1872850;76;21053;-42
2021/12/13 14:52:59;;;;;;;32.50;12.03;;;;;;;;;;1872841;75;21034;-43
2021/12/13 14:55:29;;;;;;;28.07;11.35;;;;;;;;;;1872527;75;21037;-42
2021/12/13 14:57:59;;;;;;;34.25;11.78;;;;;;;;;;1872646;75;21061;-43